Mehtap Bayraktar — TCPB — position and weather

sailwx.info

Track history (hours):
 
Tides and Currents Weather Stations Pressure Air Temp Water Temp Dewpoint Dewpoint Depression Visibility Wind Speed Wind Dir Waves Ship Positions

Mehtap Bayraktar

Last reported at 2017-Feb-28 03:30 UTC. Time now 2017-Feb-28 03:36 UTC.
Position N 44°44' E 037°47'.

Length 114 m; draft 5.8 m.

Type: Cargo ship. MMSI: 271000578.

Date/timePositionNaut miles runAvg speedWind from/ knotsBaromVisibWave heightAir tempDewpointWater temp
2017-Feb-28 03:30N 44°44' E 037°47'0 0.0
2017-Feb-28 02:30N 44°44' E 037°47'0 0.0
2017-Feb-28 01:33N 44°44' E 037°47'0 0.0
2017-Feb-28 00:33N 44°44' E 037°47'0 0.0
2017-Feb-27 23:33N 44°44' E 037°47'0 0.0
2017-Feb-27 22:33N 44°44' E 037°47'0 0.0
2017-Feb-27 21:33N 44°44' E 037°47'0 0.0
2017-Feb-27 20:33N 44°44' E 037°47'0 0.0
2017-Feb-27 19:33N 44°44' E 037°47'0 0.0
2017-Feb-27 18:33N 44°44' E 037°47'0 0.0
2017-Feb-27 17:33N 44°44' E 037°47'0 0.0
2017-Feb-27 16:33N 44°44' E 037°47'0 0.0
2017-Feb-27 15:33N 44°44' E 037°47'0 0.0
2017-Feb-27 14:33N 44°44' E 037°47'0 0.0
2017-Feb-27 13:33N 44°44' E 037°47'0 0.0
2017-Feb-27 12:33N 44°44' E 037°47'0 0.0
2017-Feb-27 11:33N 44°44' E 037°47'0 0.0
2017-Feb-27 10:33N 44°44' E 037°47'0 0.0
2017-Feb-27 09:33N 44°44' E 037°47'0 0.0
2017-Feb-27 08:33N 44°44' E 037°47'0 0.0
2017-Feb-27 07:33N 44°44' E 037°47'0 0.0
2017-Feb-27 06:33N 44°44' E 037°47'0 0.0
2017-Feb-27 05:33N 44°44' E 037°47'0 0.0
2017-Feb-27 04:33N 44°44' E 037°47'0 0.0
2017-Feb-27 03:33N 44°44' E 037°47'0 0.0
2017-Feb-27 02:33N 44°44' E 037°47'0 0.0
2017-Feb-27 01:33N 44°44' E 037°47'0 0.0
2017-Feb-27 00:33N 44°44' E 037°47'0 0.0
2017-Feb-26 23:33N 44°44' E 037°47'0 0.0
2017-Feb-26 22:33N 44°44' E 037°47'0 0.0
2017-Feb-26 21:33N 44°44' E 037°47'0 0.0
2017-Feb-26 20:30N 44°44' E 037°47'0 0.0
2017-Feb-26 19:33N 44°44' E 037°47'0 0.0
2017-Feb-26 18:33N 44°44' E 037°47'0 0.0
2017-Feb-26 17:33N 44°44' E 037°47'0 0.0
2017-Feb-26 16:33N 44°44' E 037°47'0 0.0
2017-Feb-26 14:33N 44°44' E 037°47'0 0.0
2017-Feb-26 13:33N 44°44' E 037°47'0 0.0
2017-Feb-26 12:27N 44°44' E 037°47'0 0.0
2017-Feb-26 11:33N 44°44' E 037°47'0 0.0
2017-Feb-26 10:33N 44°44' E 037°47'0 0.0
2017-Feb-26 09:33N 44°44' E 037°47'0 0.0
2017-Feb-26 08:33N 44°44' E 037°47'0 0.0
2017-Feb-26 07:33N 44°44' E 037°47'0 0.0
2017-Feb-26 06:33N 44°44' E 037°47'0 0.0
2017-Feb-26 05:33N 44°44' E 037°47'0 0.0
2017-Feb-26 04:33N 44°44' E 037°47'0 0.1
2017-Feb-26 03:33N 44°44' E 037°47'0 0.0
2017-Feb-26 02:33N 44°44' E 037°47'0 0.0
2017-Feb-26 01:33N 44°44' E 037°47'0 0.0
2017-Feb-26 00:33N 44°44' E 037°47'0 0.0
2017-Feb-25 23:30N 44°44' E 037°47'0 0.0
2017-Feb-25 22:33N 44°44' E 037°47'0 0.0
2017-Feb-25 21:33N 44°44' E 037°47'0 0.0
2017-Feb-25 20:33N 44°44' E 037°47'0 0.0
2017-Feb-25 19:33N 44°44' E 037°47'2 2.0
2017-Feb-25 18:33N 44°42' E 037°49'5 5.2
2017-Feb-25 17:33N 44°38' E 037°52'3 3.1
2017-Feb-25 16:33N 44°35' E 037°53'5 5.5
2017-Feb-25 15:33N 44°32' E 037°59'3 2.7
2017-Feb-25 14:32N 44°30' E 038°03'0 0.0
2017-Feb-25 13:32N 44°30' E 038°03'0 0.0
2017-Feb-25 12:32N 44°30' E 038°03'0 0.0
2017-Feb-25 11:32N 44°30' E 038°03'0 0.0
2017-Feb-25 10:32N 44°30' E 038°03'0 0.0
2017-Feb-25 09:32N 44°30' E 038°03'0 0.0
2017-Feb-25 08:32N 44°30' E 038°03'0 0.0
2017-Feb-25 07:32N 44°30' E 038°03'0 0.0
2017-Feb-25 06:32N 44°30' E 038°03'0 0.0
2017-Feb-25 05:32N 44°30' E 038°03'0 0.0
2017-Feb-25 04:32N 44°30' E 038°03'0 0.0
2017-Feb-25 03:32N 44°30' E 038°03'0 0.0
2017-Feb-25 02:32N 44°30' E 038°03'0 0.0
2017-Feb-25 01:32N 44°30' E 038°03'0 0.0
2017-Feb-25 00:29N 44°30' E 038°03'0 0.0
2017-Feb-24 23:26N 44°30' E 038°03'0 0.0
2017-Feb-24 22:32N 44°30' E 038°03'0 0.0
2017-Feb-24 21:32N 44°30' E 038°03'0 0.0
2017-Feb-24 20:32N 44°30' E 038°03'0 0.0
2017-Feb-24 19:32N 44°30' E 038°03'0 0.0
2017-Feb-24 18:32N 44°30' E 038°03'0 0.0
2017-Feb-24 17:26N 44°30' E 038°03'0 0.0
2017-Feb-24 16:32N 44°30' E 038°03'0 0.0
2017-Feb-24 15:23N 44°30' E 038°03'0 0.0
2017-Feb-24 14:32N 44°30' E 038°03'0 0.0
2017-Feb-24 13:32N 44°30' E 038°03'0 0.0
2017-Feb-24 12:32N 44°30' E 038°03'0 0.0
2017-Feb-24 11:32N 44°30' E 038°03'0 0.0
2017-Feb-24 10:32N 44°30' E 038°03'0 0.0
2017-Feb-24 09:32N 44°30' E 038°03'0 0.0
2017-Feb-24 08:32N 44°30' E 038°03'0 0.0
2017-Feb-24 07:32N 44°30' E 038°03'0 0.0
2017-Feb-24 06:32N 44°30' E 038°03'0 0.0
2017-Feb-24 05:32N 44°30' E 038°03'0 0.0
2017-Feb-24 04:32N 44°30' E 038°03'0 0.0
2017-Feb-24 03:32N 44°30' E 038°03'0 0.0
2017-Feb-24 02:32N 44°30' E 038°03'0 0.0
2017-Feb-24 01:32N 44°30' E 038°03'0 0.0
2017-Feb-24 00:26N 44°30' E 038°03'0 0.5
2017-Feb-23 23:31N 44°31' E 038°03'0 0.0
2017-Feb-23 22:34N 44°31' E 038°03'0 0.0
2017-Feb-23 21:34N 44°31' E 038°03'0 0.0
2017-Feb-23 20:31N 44°31' E 038°03'0 0.0
2017-Feb-23 19:34N 44°31' E 038°03'0 0.0
2017-Feb-23 18:31N 44°31' E 038°03'0 0.0
2017-Feb-23 17:34N 44°31' E 038°03'0 0.1
2017-Feb-23 16:31N 44°31' E 038°03'0 0.1
2017-Feb-23 15:31N 44°30' E 038°03'0 0.1
2017-Feb-23 14:34N 44°30' E 038°03'0 0.4
2017-Feb-23 13:32N 44°31' E 038°03'0 0.2
2017-Feb-23 12:32N 44°31' E 038°03'3 2.7
2017-Feb-23 11:34N 44°31' E 037°59'6 5.5
2017-Feb-23 10:33N 44°35' E 037°54'0 0.1
2017-Feb-23 09:32N 44°35' E 037°54'0 0.0
2017-Feb-23 08:32N 44°35' E 037°54'0 0.0
2017-Feb-23 07:32N 44°35' E 037°54'0 0.0
2017-Feb-23 06:32N 44°35' E 037°54'0 0.0
2017-Feb-23 05:32N 44°35' E 037°54'0 0.0
2017-Feb-23 04:29N 44°35' E 037°54'0 0.0
2017-Feb-23 03:32N 44°35' E 037°54'0 0.0
2017-Feb-23 02:32N 44°35' E 037°54'0 0.0
2017-Feb-23 01:32N 44°35' E 037°54'0 0.0
2017-Feb-23 00:32N 44°35' E 037°54'0 0.1
2017-Feb-22 23:32N 44°35' E 037°54'0 0.0
2017-Feb-22 22:32N 44°35' E 037°54'0 0.0
2017-Feb-22 21:32N 44°35' E 037°54'0 0.0
2017-Feb-22 20:32N 44°35' E 037°54'0 0.0
2017-Feb-22 19:32N 44°35' E 037°54'0 0.0
2017-Feb-22 18:32N 44°35' E 037°54'0 0.0
2017-Feb-22 17:32N 44°35' E 037°54'0 0.0
2017-Feb-22 16:32N 44°35' E 037°54'0 0.0
2017-Feb-22 15:32N 44°35' E 037°54'0 0.1
2017-Feb-22 14:32N 44°35' E 037°54'0 0.1
2017-Feb-22 13:32N 44°35' E 037°54'0 0.4
2017-Feb-22 12:34N 44°35' E 037°54'1 1.5
2017-Feb-22 11:33N 44°36' E 037°56'0 0.0
2017-Feb-22 10:33N 44°36' E 037°56'0 0.0
2017-Feb-22 09:33N 44°36' E 037°56'0 0.0
2017-Feb-22 08:33N 44°36' E 037°56'0 0.0
2017-Feb-22 07:33N 44°36' E 037°56'0 0.0
2017-Feb-22 06:33N 44°36' E 037°56'0 0.0
2017-Feb-22 05:33N 44°36' E 037°56'0 0.0
2017-Feb-22 04:33N 44°36' E 037°56'0 0.0
2017-Feb-22 03:33N 44°36' E 037°56'0 0.0
2017-Feb-22 02:30N 44°36' E 037°56'0 0.0
2017-Feb-22 01:33N 44°36' E 037°56'0 0.0
2017-Feb-22 00:33N 44°36' E 037°56'0 0.0
2017-Feb-21 23:33N 44°36' E 037°56'0 0.0
2017-Feb-21 22:33N 44°36' E 037°56'0 0.0
2017-Feb-21 21:33N 44°36' E 037°56'0 0.0
2017-Feb-21 20:33N 44°36' E 037°56'0 0.0
2017-Feb-21 19:33N 44°36' E 037°56'0 0.0
2017-Feb-21 18:33N 44°36' E 037°56'0 0.0
2017-Feb-21 17:33N 44°36' E 037°56'0 0.0
2017-Feb-21 16:33N 44°36' E 037°56'0 0.0
2017-Feb-21 15:33N 44°36' E 037°56'0 0.0
2017-Feb-21 14:33N 44°36' E 037°56'0 0.0
2017-Feb-21 13:33N 44°36' E 037°56'0 0.0
2017-Feb-21 12:33N 44°36' E 037°56'0 0.0
2017-Feb-21 11:33N 44°36' E 037°56'0 0.0
2017-Feb-21 10:33N 44°36' E 037°56'0 0.0
2017-Feb-21 09:33N 44°36' E 037°56'0 0.0
2017-Feb-21 08:33N 44°36' E 037°56'0 0.0
2017-Feb-21 07:33N 44°36' E 037°56'0 0.0
2017-Feb-21 06:33N 44°36' E 037°56'0 0.0
2017-Feb-21 05:33N 44°36' E 037°56'0 0.0
2017-Feb-21 04:33N 44°36' E 037°56'0 0.1
2017-Feb-21 03:30N 44°36' E 037°56'0 0.0
2017-Feb-21 02:33N 44°36' E 037°56'0 0.0
2017-Feb-21 01:33N 44°36' E 037°56'0 0.0
2017-Feb-21 00:33N 44°36' E 037°56'0 0.0
2017-Feb-20 23:30N 44°36' E 037°56'0 0.1
2017-Feb-20 22:33N 44°36' E 037°56'0 0.1
2017-Feb-20 21:33N 44°36' E 037°56'4 4.5
2017-Feb-20 20:33N 44°32' E 037°52'1010.0
2017-Feb-20 19:33N 44°26' E 037°40'1210.7
2017-Feb-20 18:25N 44°19' E 037°27'3511.0
2017-Feb-20 15:16N 43°58' E 036°48'  
Track history (hours):
 
Tides and Currents Weather Stations Pressure Air Temp Water Temp Dewpoint Dewpoint Depression Visibility Wind Speed Wind Dir Waves Ship Positions

Mehtap Bayraktar

Last reported at 2017-Feb-28 03:30 UTC. Time now 2017-Feb-28 03:36 UTC.
Position N 44°44' E 037°47'.

Length 114 m; draft 5.8 m.

Type: Cargo ship. MMSI: 271000578.

Date/timePositionNaut miles runAvg speedWind from/ knotsBaromVisibWave heightAir tempDewpointWater temp
2017-Feb-28 03:30N 44°44' E 037°47'0 0.0
2017-Feb-28 02:30N 44°44' E 037°47'0 0.0
2017-Feb-28 01:33N 44°44' E 037°47'0 0.0
2017-Feb-28 00:33N 44°44' E 037°47'0 0.0
2017-Feb-27 23:33N 44°44' E 037°47'0 0.0
2017-Feb-27 22:33N 44°44' E 037°47'0 0.0
2017-Feb-27 21:33N 44°44' E 037°47'0 0.0
2017-Feb-27 20:33N 44°44' E 037°47'0 0.0
2017-Feb-27 19:33N 44°44' E 037°47'0 0.0
2017-Feb-27 18:33N 44°44' E 037°47'0 0.0
2017-Feb-27 17:33N 44°44' E 037°47'0 0.0
2017-Feb-27 16:33N 44°44' E 037°47'0 0.0
2017-Feb-27 15:33N 44°44' E 037°47'0 0.0
2017-Feb-27 14:33N 44°44' E 037°47'0 0.0
2017-Feb-27 13:33N 44°44' E 037°47'0 0.0
2017-Feb-27 12:33N 44°44' E 037°47'0 0.0
2017-Feb-27 11:33N 44°44' E 037°47'0 0.0
2017-Feb-27 10:33N 44°44' E 037°47'0 0.0
2017-Feb-27 09:33N 44°44' E 037°47'0 0.0
2017-Feb-27 08:33N 44°44' E 037°47'0 0.0
2017-Feb-27 07:33N 44°44' E 037°47'0 0.0
2017-Feb-27 06:33N 44°44' E 037°47'0 0.0
2017-Feb-27 05:33N 44°44' E 037°47'0 0.0
2017-Feb-27 04:33N 44°44' E 037°47'0 0.0
2017-Feb-27 03:33N 44°44' E 037°47'0 0.0
2017-Feb-27 02:33N 44°44' E 037°47'0 0.0
2017-Feb-27 01:33N 44°44' E 037°47'0 0.0
2017-Feb-27 00:33N 44°44' E 037°47'0 0.0
2017-Feb-26 23:33N 44°44' E 037°47'0 0.0
2017-Feb-26 22:33N 44°44' E 037°47'0 0.0
2017-Feb-26 21:33N 44°44' E 037°47'0 0.0
2017-Feb-26 20:30N 44°44' E 037°47'0 0.0
2017-Feb-26 19:33N 44°44' E 037°47'0 0.0
2017-Feb-26 18:33N 44°44' E 037°47'0 0.0
2017-Feb-26 17:33N 44°44' E 037°47'0 0.0
2017-Feb-26 16:33N 44°44' E 037°47'0 0.0
2017-Feb-26 14:33N 44°44' E 037°47'0 0.0
2017-Feb-26 13:33N 44°44' E 037°47'0 0.0
2017-Feb-26 12:27N 44°44' E 037°47'0 0.0
2017-Feb-26 11:33N 44°44' E 037°47'0 0.0
2017-Feb-26 10:33N 44°44' E 037°47'0 0.0
2017-Feb-26 09:33N 44°44' E 037°47'0 0.0
2017-Feb-26 08:33N 44°44' E 037°47'0 0.0
2017-Feb-26 07:33N 44°44' E 037°47'0 0.0
2017-Feb-26 06:33N 44°44' E 037°47'0 0.0
2017-Feb-26 05:33N 44°44' E 037°47'0 0.0
2017-Feb-26 04:33N 44°44' E 037°47'0 0.1
2017-Feb-26 03:33N 44°44' E 037°47'0 0.0
2017-Feb-26 02:33N 44°44' E 037°47'0 0.0
2017-Feb-26 01:33N 44°44' E 037°47'0 0.0
2017-Feb-26 00:33N 44°44' E 037°47'0 0.0
2017-Feb-25 23:30N 44°44' E 037°47'0 0.0
2017-Feb-25 22:33N 44°44' E 037°47'0 0.0
2017-Feb-25 21:33N 44°44' E 037°47'0 0.0
2017-Feb-25 20:33N 44°44' E 037°47'0 0.0
2017-Feb-25 19:33N 44°44' E 037°47'2 2.0
2017-Feb-25 18:33N 44°42' E 037°49'5 5.2
2017-Feb-25 17:33N 44°38' E 037°52'3 3.1
2017-Feb-25 16:33N 44°35' E 037°53'5 5.5
2017-Feb-25 15:33N 44°32' E 037°59'3 2.7
2017-Feb-25 14:32N 44°30' E 038°03'0 0.0
2017-Feb-25 13:32N 44°30' E 038°03'0 0.0
2017-Feb-25 12:32N 44°30' E 038°03'0 0.0
2017-Feb-25 11:32N 44°30' E 038°03'0 0.0
2017-Feb-25 10:32N 44°30' E 038°03'0 0.0
2017-Feb-25 09:32N 44°30' E 038°03'0 0.0
2017-Feb-25 08:32N 44°30' E 038°03'0 0.0
2017-Feb-25 07:32N 44°30' E 038°03'0 0.0
2017-Feb-25 06:32N 44°30' E 038°03'0 0.0
2017-Feb-25 05:32N 44°30' E 038°03'0 0.0
2017-Feb-25 04:32N 44°30' E 038°03'0 0.0
2017-Feb-25 03:32N 44°30' E 038°03'0 0.0
2017-Feb-25 02:32N 44°30' E 038°03'0 0.0
2017-Feb-25 01:32N 44°30' E 038°03'0 0.0
2017-Feb-25 00:29N 44°30' E 038°03'0 0.0
2017-Feb-24 23:26N 44°30' E 038°03'0 0.0
2017-Feb-24 22:32N 44°30' E 038°03'0 0.0
2017-Feb-24 21:32N 44°30' E 038°03'0 0.0
2017-Feb-24 20:32N 44°30' E 038°03'0 0.0
2017-Feb-24 19:32N 44°30' E 038°03'0 0.0
2017-Feb-24 18:32N 44°30' E 038°03'0 0.0
2017-Feb-24 17:26N 44°30' E 038°03'0 0.0
2017-Feb-24 16:32N 44°30' E 038°03'0 0.0
2017-Feb-24 15:23N 44°30' E 038°03'0 0.0
2017-Feb-24 14:32N 44°30' E 038°03'0 0.0
2017-Feb-24 13:32N 44°30' E 038°03'0 0.0
2017-Feb-24 12:32N 44°30' E 038°03'0 0.0
2017-Feb-24 11:32N 44°30' E 038°03'0 0.0
2017-Feb-24 10:32N 44°30' E 038°03'0 0.0
2017-Feb-24 09:32N 44°30' E 038°03'0 0.0
2017-Feb-24 08:32N 44°30' E 038°03'0 0.0
2017-Feb-24 07:32N 44°30' E 038°03'0 0.0
2017-Feb-24 06:32N 44°30' E 038°03'0 0.0
2017-Feb-24 05:32N 44°30' E 038°03'0 0.0
2017-Feb-24 04:32N 44°30' E 038°03'0 0.0
2017-Feb-24 03:32N 44°30' E 038°03'0 0.0
2017-Feb-24 02:32N 44°30' E 038°03'0 0.0
2017-Feb-24 01:32N 44°30' E 038°03'0 0.0
2017-Feb-24 00:26N 44°30' E 038°03'0 0.5
2017-Feb-23 23:31N 44°31' E 038°03'0 0.0
2017-Feb-23 22:34N 44°31' E 038°03'0 0.0
2017-Feb-23 21:34N 44°31' E 038°03'0 0.0
2017-Feb-23 20:31N 44°31' E 038°03'0 0.0
2017-Feb-23 19:34N 44°31' E 038°03'0 0.0
2017-Feb-23 18:31N 44°31' E 038°03'0 0.0
2017-Feb-23 17:34N 44°31' E 038°03'0 0.1
2017-Feb-23 16:31N 44°31' E 038°03'0 0.1
2017-Feb-23 15:31N 44°30' E 038°03'0 0.1
2017-Feb-23 14:34N 44°30' E 038°03'0 0.4
2017-Feb-23 13:32N 44°31' E 038°03'0 0.2
2017-Feb-23 12:32N 44°31' E 038°03'3 2.7
2017-Feb-23 11:34N 44°31' E 037°59'6 5.5
2017-Feb-23 10:33N 44°35' E 037°54'0 0.1
2017-Feb-23 09:32N 44°35' E 037°54'0 0.0
2017-Feb-23 08:32N 44°35' E 037°54'0 0.0
2017-Feb-23 07:32N 44°35' E 037°54'0 0.0
2017-Feb-23 06:32N 44°35' E 037°54'0 0.0
2017-Feb-23 05:32N 44°35' E 037°54'0 0.0
2017-Feb-23 04:29N 44°35' E 037°54'0 0.0
2017-Feb-23 03:32N 44°35' E 037°54'0 0.0
2017-Feb-23 02:32N 44°35' E 037°54'0 0.0
2017-Feb-23 01:32N 44°35' E 037°54'0 0.0
2017-Feb-23 00:32N 44°35' E 037°54'0 0.1
2017-Feb-22 23:32N 44°35' E 037°54'0 0.0
2017-Feb-22 22:32N 44°35' E 037°54'0 0.0
2017-Feb-22 21:32N 44°35' E 037°54'0 0.0
2017-Feb-22 20:32N 44°35' E 037°54'0 0.0
2017-Feb-22 19:32N 44°35' E 037°54'0 0.0
2017-Feb-22 18:32N 44°35' E 037°54'0 0.0
2017-Feb-22 17:32N 44°35' E 037°54'0 0.0
2017-Feb-22 16:32N 44°35' E 037°54'0 0.0
2017-Feb-22 15:32N 44°35' E 037°54'0 0.1
2017-Feb-22 14:32N 44°35' E 037°54'0 0.1
2017-Feb-22 13:32N 44°35' E 037°54'0 0.4
2017-Feb-22 12:34N 44°35' E 037°54'1 1.5
2017-Feb-22 11:33N 44°36' E 037°56'0 0.0
2017-Feb-22 10:33N 44°36' E 037°56'0 0.0
2017-Feb-22 09:33N 44°36' E 037°56'0 0.0
2017-Feb-22 08:33N 44°36' E 037°56'0 0.0
2017-Feb-22 07:33N 44°36' E 037°56'0 0.0
2017-Feb-22 06:33N 44°36' E 037°56'0 0.0
2017-Feb-22 05:33N 44°36' E 037°56'0 0.0
2017-Feb-22 04:33N 44°36' E 037°56'0 0.0
2017-Feb-22 03:33N 44°36' E 037°56'0 0.0
2017-Feb-22 02:30N 44°36' E 037°56'0 0.0
2017-Feb-22 01:33N 44°36' E 037°56'0 0.0
2017-Feb-22 00:33N 44°36' E 037°56'0 0.0
2017-Feb-21 23:33N 44°36' E 037°56'0 0.0
2017-Feb-21 22:33N 44°36' E 037°56'0 0.0
2017-Feb-21 21:33N 44°36' E 037°56'0 0.0
2017-Feb-21 20:33N 44°36' E 037°56'0 0.0
2017-Feb-21 19:33N 44°36' E 037°56'0 0.0
2017-Feb-21 18:33N 44°36' E 037°56'0 0.0
2017-Feb-21 17:33N 44°36' E 037°56'0 0.0
2017-Feb-21 16:33N 44°36' E 037°56'0 0.0
2017-Feb-21 15:33N 44°36' E 037°56'0 0.0
2017-Feb-21 14:33N 44°36' E 037°56'0 0.0
2017-Feb-21 13:33N 44°36' E 037°56'0 0.0
2017-Feb-21 12:33N 44°36' E 037°56'0 0.0
2017-Feb-21 11:33N 44°36' E 037°56'0 0.0
2017-Feb-21 10:33N 44°36' E 037°56'0 0.0
2017-Feb-21 09:33N 44°36' E 037°56'0 0.0
2017-Feb-21 08:33N 44°36' E 037°56'0 0.0
2017-Feb-21 07:33N 44°36' E 037°56'0 0.0
2017-Feb-21 06:33N 44°36' E 037°56'0 0.0
2017-Feb-21 05:33N 44°36' E 037°56'0 0.0
2017-Feb-21 04:33N 44°36' E 037°56'0 0.1
2017-Feb-21 03:30N 44°36' E 037°56'0 0.0
2017-Feb-21 02:33N 44°36' E 037°56'0 0.0
2017-Feb-21 01:33N 44°36' E 037°56'0 0.0
2017-Feb-21 00:33N 44°36' E 037°56'0 0.0
2017-Feb-20 23:30N 44°36' E 037°56'0 0.1
2017-Feb-20 22:33N 44°36' E 037°56'0 0.1
2017-Feb-20 21:33N 44°36' E 037°56'4 4.5
2017-Feb-20 20:33N 44°32' E 037°52'1010.0
2017-Feb-20 19:33N 44°26' E 037°40'1210.7
2017-Feb-20 18:25N 44°19' E 037°27'3511.0
2017-Feb-20 15:16N 43°58' E 036°48'  

Dump ship's entire track history